createdAt,value
2022-11-15T00:00:26.489Z,93.29
2022-11-15T00:03:15.712Z,92.54
2022-11-15T00:06:04.375Z,92.90
2022-11-15T00:08:51.614Z,92.53
2022-11-15T00:11:39.467Z,92.63
2022-11-15T00:14:25.972Z,92.37
2022-11-15T00:17:12.554Z,93.22
2022-11-15T00:19:59.053Z,93.05
2022-11-15T00:22:45.703Z,92.33
2022-11-15T00:25:32.450Z,92.76
2022-11-15T00:28:20.208Z,92.53
2022-11-15T00:31:11.163Z,92.16
2022-11-15T00:33:57.423Z,92.36
2022-11-15T00:36:44.128Z,93.09
2022-11-15T00:39:30.600Z,93.10
2022-11-15T00:42:17.148Z,92.15
2022-11-15T00:45:05.611Z,92.57
2022-11-15T00:47:52.387Z,92.57
2022-11-15T00:50:39.030Z,92.91
2022-11-15T00:53:25.743Z,92.92
2022-11-15T00:56:12.236Z,92.51
2022-11-15T00:58:58.978Z,93.07
2022-11-15T01:01:46.956Z,92.85
2022-11-15T01:04:33.225Z,92.97
2022-11-15T01:07:19.898Z,91.97
2022-11-15T01:10:07.672Z,92.58
2022-11-15T01:12:54.300Z,92.25
2022-11-15T01:15:42.303Z,92.38
2022-11-15T01:18:29.960Z,93.52
2022-11-15T01:21:19.678Z,93.22
2022-11-15T01:24:06.945Z,92.62
2022-11-15T01:26:53.401Z,92.85
2022-11-15T01:29:39.736Z,93.05
2022-11-15T01:32:26.295Z,93.18
2022-11-15T01:35:14.162Z,93.56
2022-11-15T01:38:00.939Z,93.24
2022-11-15T01:40:47.590Z,93.85
2022-11-15T01:43:36.938Z,93.78
2022-11-15T01:46:31.754Z,93.76
2022-11-15T01:49:21.402Z,94.28
2022-11-15T01:52:13.345Z,94.23
2022-11-15T01:55:06.775Z,94.46
2022-11-15T01:57:56.566Z,94.42
2022-11-15T02:00:42.955Z,94.23
2022-11-15T02:03:37.565Z,95.25
2022-11-15T02:06:24.654Z,94.82
2022-11-15T02:09:13.411Z,94.64
2022-11-15T02:12:01.389Z,94.60
2022-11-15T02:14:54.189Z,93.82
2022-11-15T02:17:54.754Z,94.58
2022-11-15T02:21:12.544Z,94.25
2022-11-15T02:24:24.473Z,94.43
2022-11-15T02:27:40.155Z,94.43
2022-11-15T02:30:35.807Z,94.52
2022-11-15T02:33:34.791Z,94.63
2022-11-15T02:36:32.746Z,94.94
2022-11-15T02:39:27.634Z,95.30
2022-11-15T02:42:37.950Z,95.29
2022-11-15T02:45:31.275Z,94.83
2022-11-15T02:48:18.882Z,94.31
2022-11-15T02:51:06.130Z,95.00
2022-11-15T02:53:52.627Z,94.61
2022-11-15T02:56:39.304Z,94.36
2022-11-15T02:59:46.206Z,93.85
2022-11-15T03:02:44.606Z,93.54
2022-11-15T03:05:37.364Z,93.89
2022-11-15T03:08:31.316Z,93.58
2022-11-15T03:11:19.638Z,94.15
2022-11-15T03:14:19.223Z,94.44
2022-11-15T03:17:15.982Z,93.83
2022-11-15T03:20:06.964Z,94.95
2022-11-15T03:22:55.317Z,94.57
2022-11-15T03:25:47.769Z,93.96
2022-11-15T03:28:38.391Z,94.12
2022-11-15T03:31:49.747Z,95.38
2022-11-15T03:34:43.423Z,94.69
2022-11-15T03:37:37.052Z,94.34
2022-11-15T03:40:29.826Z,94.53
2022-11-15T03:43:24.927Z,94.80
2022-11-15T03:46:17.274Z,94.57
2022-11-15T03:49:09.617Z,94.44
2022-11-15T03:51:59.304Z,94.76
2022-11-15T03:54:52.908Z,94.73
2022-11-15T03:57:39.331Z,95.18
2022-11-15T04:00:26.188Z,94.93
2022-11-15T04:03:12.617Z,94.81
2022-11-15T04:05:59.679Z,94.87
2022-11-15T04:08:46.334Z,94.49
2022-11-15T04:11:34.270Z,95.22
2022-11-15T04:14:20.749Z,94.78
2022-11-15T04:17:07.351Z,94.82
2022-11-15T04:20:11.896Z,95.01
2022-11-15T04:23:17.469Z,93.96
2022-11-15T04:26:06.544Z,94.09
2022-11-15T04:29:12.020Z,94.96
2022-11-15T04:31:58.985Z,95.63
2022-11-15T04:34:45.375Z,94.83
2022-11-15T04:37:32.006Z,94.80
2022-11-15T04:40:18.610Z,95.23
2022-11-15T04:43:05.494Z,95.75
2022-11-15T04:45:53.071Z,94.95
2022-11-15T04:48:39.792Z,95.35
2022-11-15T04:51:26.421Z,94.74
2022-11-15T04:54:13.305Z,95.63
2022-11-15T04:57:00.231Z,94.66
2022-11-15T04:59:46.640Z,94.87
2022-11-15T05:02:48.882Z,95.02
2022-11-15T05:05:35.159Z,94.80
2022-11-15T05:08:22.065Z,94.28
2022-11-15T05:11:08.665Z,94.76
2022-11-15T05:13:55.429Z,94.19
2022-11-15T05:16:42.100Z,94.28
2022-11-15T05:19:29.712Z,95.40
2022-11-15T05:22:16.162Z,95.39
2022-11-15T05:25:03.209Z,95.60
2022-11-15T05:27:50.028Z,95.78
2022-11-15T05:30:36.428Z,96.13
2022-11-15T05:33:23.210Z,95.80
2022-11-15T05:36:17.438Z,95.65
2022-11-15T05:39:05.353Z,96.25
2022-11-15T05:41:56.443Z,95.48
2022-11-15T05:44:46.351Z,96.12
2022-11-15T05:47:33.144Z,95.34
2022-11-15T05:50:20.916Z,94.89
2022-11-15T05:53:09.418Z,95.34
2022-11-15T05:55:55.831Z,94.69
2022-11-15T05:58:42.341Z,95.03
2022-11-15T06:01:29.415Z,94.75
2022-11-15T06:04:15.577Z,94.26
2022-11-15T06:07:02.200Z,94.67
2022-11-15T06:09:50.356Z,94.46
2022-11-15T06:12:36.951Z,94.31
2022-11-15T06:15:23.398Z,94.38
2022-11-15T06:18:10.351Z,94.55
2022-11-15T06:21:00.571Z,94.91
2022-11-15T06:23:46.895Z,94.94
2022-11-15T06:26:34.804Z,95.07
2022-11-15T06:29:21.392Z,94.91
2022-11-15T06:32:08.148Z,95.33
2022-11-15T06:34:54.529Z,95.19
2022-11-15T06:37:41.600Z,94.50
2022-11-15T06:40:27.842Z,95.36
2022-11-15T06:43:16.230Z,94.76
2022-11-15T06:46:03.703Z,95.43
2022-11-15T06:48:52.662Z,95.68
2022-11-15T06:51:39.300Z,95.79
2022-11-15T06:54:26.042Z,96.83
2022-11-15T06:57:12.483Z,96.81
2022-11-15T07:00:00.315Z,96.26
2022-11-15T07:02:46.950Z,97.40
2022-11-15T07:05:33.998Z,97.66
2022-11-15T07:08:20.334Z,97.28
2022-11-15T07:11:09.233Z,97.45
2022-11-15T07:13:55.932Z,97.47
2022-11-15T07:16:44.189Z,97.08
2022-11-15T07:19:30.372Z,97.49
2022-11-15T07:22:17.065Z,97.26
2022-11-15T07:25:03.596Z,97.10
2022-11-15T07:27:56.719Z,97.06
2022-11-15T07:30:45.404Z,97.34
2022-11-15T07:33:34.063Z,96.66
2022-11-15T07:36:20.713Z,96.50
2022-11-15T07:39:07.316Z,96.58
2022-11-15T07:42:14.441Z,95.67
2022-11-15T07:45:01.043Z,95.86
2022-11-15T07:47:47.870Z,95.73
2022-11-15T07:50:35.649Z,95.32
2022-11-15T07:53:22.246Z,95.83
2022-11-15T07:56:09.339Z,95.71
2022-11-15T07:58:55.898Z,95.37
2022-11-15T08:01:42.607Z,96.56
2022-11-15T08:04:29.480Z,96.37
2022-11-15T08:07:17.844Z,94.89
2022-11-15T08:10:05.021Z,95.32
2022-11-15T08:12:59.503Z,94.92
2022-11-15T08:15:45.863Z,94.18
2022-11-15T08:18:32.470Z,94.35
2022-11-15T08:21:21.778Z,94.23
2022-11-15T08:24:11.934Z,93.84
2022-11-15T08:26:58.687Z,93.92
2022-11-15T08:29:45.315Z,93.95
2022-11-15T08:32:32.756Z,92.66
2022-11-15T08:35:21.695Z,90.63
2022-11-15T08:38:10.157Z,89.60
2022-11-15T08:41:03.154Z,90.10
2022-11-15T08:43:49.780Z,89.63
2022-11-15T08:46:36.399Z,88.92
2022-11-15T08:49:23.314Z,88.29
2022-11-15T08:52:09.667Z,87.79
2022-11-15T08:54:56.256Z,88.03
2022-11-15T08:57:44.167Z,88.75
2022-11-15T09:00:30.446Z,90.40
2022-11-15T09:03:17.349Z,89.75
2022-11-15T09:06:03.798Z,87.97
2022-11-15T09:08:50.285Z,87.45
2022-11-15T09:11:36.583Z,87.78
2022-11-15T09:14:24.324Z,87.57
2022-11-15T09:17:11.317Z,87.42
2022-11-15T09:19:57.998Z,87.64
2022-11-15T09:22:44.678Z,87.38
2022-11-15T09:25:31.368Z,87.22
2022-11-15T09:28:17.753Z,86.50
2022-11-15T09:31:07.659Z,86.17
2022-11-15T09:33:54.625Z,85.91
2022-11-15T09:36:40.834Z,85.42
2022-11-15T09:39:27.597Z,85.00
2022-11-15T09:42:32.842Z,84.06
2022-11-15T09:45:24.674Z,83.76
2022-11-15T09:48:36.513Z,83.70
2022-11-15T09:51:32.249Z,83.85
2022-11-15T09:54:45.522Z,84.45
2022-11-15T09:56:55.410Z,84.35
2022-11-15T09:59:37.257Z,84.48
2022-11-15T10:02:26.026Z,84.45
2022-11-15T10:04:56.069Z,83.73
2022-11-15T10:07:29.271Z,82.70
2022-11-15T10:10:04.297Z,82.87
2022-11-15T10:12:33.323Z,82.58
2022-11-15T10:15:05.337Z,83.26
2022-11-15T10:17:58.354Z,82.55
2022-11-15T10:20:30.122Z,83.52
2022-11-15T10:23:02.476Z,83.38
2022-11-15T10:25:32.864Z,83.12
2022-11-15T10:28:08.655Z,83.03
2022-11-15T10:30:38.326Z,82.80
2022-11-15T10:33:19.460Z,82.76
2022-11-15T10:35:48.970Z,81.92
2022-11-15T10:38:16.897Z,82.40
2022-11-15T10:40:45.925Z,81.81
2022-11-15T10:43:19.796Z,82.20
2022-11-15T10:45:49.759Z,81.75
2022-11-15T10:48:25.682Z,80.77
2022-11-15T10:50:56.990Z,81.55
2022-11-15T10:53:39.367Z,81.63
2022-11-15T10:56:10.431Z,81.42
2022-11-15T10:58:42.025Z,81.72
2022-11-15T11:01:19.036Z,82.38
2022-11-15T11:04:00.053Z,82.51
2022-11-15T11:06:30.031Z,81.29
2022-11-15T11:08:59.933Z,81.00
2022-11-15T11:11:47.192Z,82.09
2022-11-15T11:14:26.792Z,81.77
2022-11-15T11:16:57.608Z,81.39
2022-11-15T11:19:39.428Z,81.49
2022-11-15T11:22:18.733Z,81.23
2022-11-15T11:24:55.587Z,80.45
2022-11-15T11:27:37.537Z,80.57
2022-11-15T11:30:11.355Z,79.62
2022-11-15T11:32:55.181Z,80.00
2022-11-15T11:35:30.278Z,79.85
2022-11-15T11:38:11.365Z,80.35
2022-11-15T11:40:45.741Z,81.49
2022-11-15T11:43:23.688Z,80.36
2022-11-15T11:46:07.347Z,79.60
2022-11-15T11:48:43.962Z,80.11
2022-11-15T11:51:19.050Z,80.06
2022-11-15T11:53:55.856Z,79.70
2022-11-15T11:56:30.836Z,79.65
2022-11-15T11:59:04.388Z,80.66
2022-11-15T12:01:37.959Z,78.83
2022-11-15T12:04:13.146Z,79.14
2022-11-15T12:06:47.781Z,79.63
2022-11-15T12:09:23.871Z,78.74
2022-11-15T12:12:00.362Z,78.86
2022-11-15T12:14:34.704Z,78.39
2022-11-15T12:17:02.838Z,77.83
2022-11-15T12:19:31.833Z,78.43
2022-11-15T12:22:05.237Z,78.06
2022-11-15T12:24:40.908Z,78.55
2022-11-15T12:27:23.364Z,78.89
2022-11-15T12:29:58.888Z,78.43
2022-11-15T12:32:30.777Z,78.96
2022-11-15T12:35:00.092Z,78.35
2022-11-15T12:37:52.555Z,79.84
2022-11-15T12:40:34.249Z,78.82
2022-11-15T12:43:05.388Z,79.72
2022-11-15T12:45:35.614Z,79.24
2022-11-15T12:48:51.073Z,79.78
2022-11-15T12:51:21.715Z,80.17
2022-11-15T12:53:49.715Z,80.84
2022-11-15T12:56:25.541Z,80.14
2022-11-15T12:58:56.756Z,80.49
2022-11-15T13:02:01.222Z,79.39
2022-11-15T13:04:31.185Z,79.90
2022-11-15T13:07:01.902Z,79.43
2022-11-15T13:09:53.379Z,78.78
2022-11-15T13:12:59.890Z,77.87
2022-11-15T13:15:47.830Z,78.70
2022-11-15T13:18:36.069Z,78.52
2022-11-15T13:21:28.217Z,78.06
2022-11-15T13:23:57.413Z,78.09
2022-11-15T13:26:25.545Z,78.77
2022-11-15T13:28:56.936Z,78.86
2022-11-15T13:31:38.523Z,78.58
2022-11-15T13:34:49.929Z,79.13
2022-11-15T13:37:29.643Z,80.37
2022-11-15T13:40:19.717Z,81.54
2022-11-15T13:42:47.624Z,81.36
2022-11-15T13:45:19.136Z,81.77
2022-11-15T13:47:52.765Z,81.59
2022-11-15T13:50:24.446Z,81.60
2022-11-15T13:52:53.594Z,81.24
2022-11-15T13:55:24.019Z,81.52
2022-11-15T13:57:55.654Z,82.68
2022-11-15T14:00:34.546Z,82.42
2022-11-15T14:03:10.482Z,81.48
2022-11-15T14:05:39.460Z,82.59
2022-11-15T14:08:24.795Z,82.25
2022-11-15T14:11:09.799Z,82.86
2022-11-15T14:13:38.041Z,82.68
2022-11-15T14:16:18.854Z,82.60
2022-11-15T14:18:49.363Z,82.29
2022-11-15T14:21:17.799Z,81.90
2022-11-15T14:23:46.625Z,81.88
2022-11-15T14:26:30.260Z,81.62
2022-11-15T14:28:58.882Z,81.66
2022-11-15T14:31:28.215Z,81.76
2022-11-15T14:33:56.277Z,82.07
2022-11-15T14:36:24.307Z,82.30
2022-11-15T14:38:52.289Z,83.07
2022-11-15T14:41:23.001Z,82.72
2022-11-15T14:43:51.141Z,82.43
2022-11-15T14:46:19.710Z,82.21
2022-11-15T14:48:49.121Z,83.01
2022-11-15T14:51:19.918Z,82.63
2022-11-15T14:53:48.794Z,82.22
2022-11-15T14:56:17.728Z,81.93
2022-11-15T14:58:45.846Z,82.59
2022-11-15T15:01:18.559Z,82.75
2022-11-15T15:03:48.087Z,83.46
2022-11-15T15:06:18.257Z,83.34
2022-11-15T15:08:47.000Z,84.06
2022-11-15T15:11:25.247Z,83.96
2022-11-15T15:13:54.126Z,84.08
2022-11-15T15:16:22.725Z,83.58
2022-11-15T15:18:52.522Z,83.77
2022-11-15T15:21:23.158Z,84.77
2022-11-15T15:23:51.276Z,85.65
2022-11-15T15:26:19.728Z,86.36
2022-11-15T15:28:49.529Z,85.01
2022-11-15T15:31:18.022Z,85.46
2022-11-15T15:33:46.133Z,85.61
2022-11-15T15:36:18.898Z,85.17
2022-11-15T15:38:47.835Z,85.91
2022-11-15T15:41:17.382Z,85.36
2022-11-15T15:43:45.645Z,85.22
2022-11-15T15:46:16.051Z,84.51
2022-11-15T15:48:44.368Z,85.14
2022-11-15T15:51:19.638Z,84.22
2022-11-15T15:53:51.689Z,84.54
2022-11-15T15:56:19.681Z,84.57
2022-11-15T15:58:47.659Z,84.77
2022-11-15T16:01:15.578Z,84.43
2022-11-15T16:03:43.585Z,84.21
2022-11-15T16:06:37.512Z,84.15
2022-11-15T16:09:15.772Z,84.02
2022-11-15T16:11:46.437Z,84.43
2022-11-15T16:14:14.587Z,84.18
2022-11-15T16:16:42.557Z,84.11
2022-11-15T16:19:12.433Z,84.41
2022-11-15T16:21:40.379Z,85.10
2022-11-15T16:24:09.614Z,84.80
2022-11-15T16:26:38.924Z,85.35
2022-11-15T16:29:07.982Z,85.29
2022-11-15T16:31:36.015Z,85.30
2022-11-15T16:34:04.058Z,85.70
2022-11-15T16:36:35.005Z,86.48
2022-11-15T16:39:05.279Z,86.13
2022-11-15T16:41:34.942Z,85.49
2022-11-15T16:44:02.981Z,85.97
2022-11-15T16:46:32.278Z,85.24
2022-11-15T16:49:00.270Z,85.04
2022-11-15T16:51:28.306Z,86.93
2022-11-15T16:53:56.239Z,86.75
2022-11-15T16:56:26.753Z,85.78
2022-11-15T16:58:58.657Z,86.29
2022-11-15T17:01:29.026Z,86.83
2022-11-15T17:03:57.583Z,87.45
2022-11-15T17:06:27.309Z,87.46
2022-11-15T17:08:56.622Z,88.03
2022-11-15T17:11:24.655Z,86.36
2022-11-15T17:13:53.118Z,84.98
2022-11-15T17:16:22.475Z,84.70
2022-11-15T17:18:52.478Z,85.00
2022-11-15T17:21:22.568Z,84.89
2022-11-15T17:23:50.663Z,85.02
2022-11-15T17:26:29.565Z,85.07
2022-11-15T17:29:00.903Z,84.88
2022-11-15T17:31:33.773Z,84.74
2022-11-15T17:34:02.359Z,84.97
2022-11-15T17:36:30.507Z,85.17
2022-11-15T17:39:00.025Z,86.44
2022-11-15T17:41:28.909Z,85.38
2022-11-15T17:43:59.226Z,85.33
2022-11-15T17:46:28.180Z,85.04
2022-11-15T17:48:58.615Z,85.82
2022-11-15T17:51:26.941Z,85.93
2022-11-15T17:53:56.535Z,86.01
2022-11-15T17:56:26.606Z,86.84
2022-11-15T17:58:56.078Z,86.50
2022-11-15T18:01:25.696Z,86.53
2022-11-15T18:03:54.622Z,86.90
2022-11-15T18:06:25.258Z,86.55
2022-11-15T18:08:55.978Z,87.42
2022-11-15T18:11:25.720Z,86.61
2022-11-15T18:13:56.757Z,86.50
2022-11-15T18:16:27.235Z,87.61
2022-11-15T18:18:56.101Z,87.61
2022-11-15T18:21:27.361Z,87.83
2022-11-15T18:23:57.173Z,87.65
2022-11-15T18:26:27.851Z,87.84
2022-11-15T18:28:57.670Z,88.10
2022-11-15T18:31:28.764Z,88.22
2022-11-15T18:33:57.381Z,88.13
2022-11-15T18:36:28.152Z,88.22
2022-11-15T18:38:56.806Z,88.13
2022-11-15T18:41:28.321Z,88.64
2022-11-15T18:43:56.759Z,88.96
2022-11-15T18:46:26.327Z,88.85
2022-11-15T18:48:55.590Z,89.32
2022-11-15T18:51:25.512Z,89.57
2022-11-15T18:53:56.100Z,89.11
2022-11-15T18:56:25.664Z,90.05
2022-11-15T18:58:55.675Z,88.67
2022-11-15T19:01:25.813Z,87.77
2022-11-15T19:03:55.259Z,88.08
2022-11-15T19:06:25.062Z,88.33
2022-11-15T19:08:56.394Z,88.40
2022-11-15T19:11:28.744Z,88.84
2022-11-15T19:13:59.607Z,88.99
2022-11-15T19:16:29.172Z,88.99
2022-11-15T19:18:58.470Z,89.16
2022-11-15T19:21:27.460Z,89.48
2022-11-15T19:23:56.762Z,89.56
2022-11-15T19:26:25.623Z,89.42
2022-11-15T19:28:55.505Z,89.97
2022-11-15T19:31:25.194Z,89.86
2022-11-15T19:33:54.490Z,90.28
2022-11-15T19:36:24.138Z,90.22
2022-11-15T19:38:52.135Z,90.11
2022-11-15T19:41:23.316Z,89.91
2022-11-15T19:43:52.337Z,90.49
2022-11-15T19:46:23.501Z,90.49
2022-11-15T19:48:52.287Z,90.34
2022-11-15T19:51:22.608Z,91.22
2022-11-15T19:53:51.361Z,91.49
2022-11-15T19:56:24.746Z,91.90
2022-11-15T19:58:56.020Z,91.96
2022-11-15T20:01:26.037Z,92.49
2022-11-15T20:03:55.881Z,92.54
2022-11-15T20:06:25.541Z,92.50
2022-11-15T20:08:53.811Z,92.31
2022-11-15T20:11:23.556Z,92.51
2022-11-15T20:13:51.855Z,92.86
2022-11-15T20:16:21.853Z,93.05
2022-11-15T20:18:51.346Z,92.64
2022-11-15T20:21:20.685Z,93.00
2022-11-15T20:23:51.649Z,93.07
2022-11-15T20:26:20.485Z,93.14
2022-11-15T20:28:50.152Z,93.26
2022-11-15T20:31:18.468Z,92.49
2022-11-15T20:33:46.658Z,92.88
2022-11-15T20:36:18.000Z,91.97
2022-11-15T20:38:48.890Z,92.83
2022-11-15T20:41:17.570Z,92.76
2022-11-15T20:43:45.815Z,93.04
2022-11-15T20:46:15.608Z,92.61
2022-11-15T20:48:47.999Z,93.44
2022-11-15T20:51:24.133Z,93.16
2022-11-15T20:53:52.804Z,93.49
2022-11-15T20:56:28.453Z,93.80
2022-11-15T20:58:56.568Z,93.00
2022-11-15T21:01:29.213Z,93.51
2022-11-15T21:03:58.067Z,92.99
2022-11-15T21:06:30.117Z,93.52
2022-11-15T21:09:15.804Z,93.86
2022-11-15T21:12:01.745Z,93.80
2022-11-15T21:14:30.010Z,93.90
2022-11-15T21:16:59.484Z,94.52
2022-11-15T21:19:32.587Z,94.58
2022-11-15T21:22:02.868Z,95.21
2022-11-15T21:24:31.098Z,94.80
2022-11-15T21:26:59.268Z,94.89
2022-11-15T21:29:28.538Z,94.90
2022-11-15T21:31:56.590Z,94.91
2022-11-15T21:34:25.840Z,95.10
2022-11-15T21:36:54.068Z,94.76
2022-11-15T21:39:22.214Z,94.91
2022-11-15T21:41:50.122Z,95.18
2022-11-15T21:44:18.144Z,94.69
2022-11-15T21:46:46.041Z,94.69
2022-11-15T21:49:14.070Z,93.84
2022-11-15T21:51:43.615Z,94.60
2022-11-15T21:54:11.880Z,94.51
2022-11-15T21:56:39.877Z,93.97
2022-11-15T21:59:07.753Z,94.97
2022-11-15T22:01:53.486Z,95.08
2022-11-15T22:04:23.904Z,95.11
2022-11-15T22:06:53.352Z,95.11
2022-11-15T22:09:21.253Z,94.94
2022-11-15T22:11:49.259Z,95.36
2022-11-15T22:14:17.589Z,95.15
2022-11-15T22:16:45.627Z,94.92
2022-11-15T22:19:13.705Z,95.25
2022-11-15T22:21:41.844Z,95.37
2022-11-15T22:24:11.214Z,95.67
2022-11-15T22:26:39.275Z,96.05
2022-11-15T22:29:07.288Z,96.13
2022-11-15T22:31:35.309Z,96.11
2022-11-15T22:34:03.368Z,96.53
2022-11-15T22:36:46.918Z,97.10
2022-11-15T22:39:16.647Z,97.40
2022-11-15T22:41:44.624Z,97.80
2022-11-15T22:44:12.656Z,97.96
2022-11-15T22:46:40.562Z,98.17
2022-11-15T22:49:09.227Z,97.92
2022-11-15T22:51:38.953Z,98.11
2022-11-15T22:54:07.653Z,98.34
2022-11-15T22:56:37.106Z,98.09
2022-11-15T22:59:05.158Z,98.46
2022-11-15T23:01:33.293Z,98.67
2022-11-15T23:04:01.421Z,98.89
2022-11-15T23:06:29.485Z,99.11
2022-11-15T23:08:57.516Z,99.60
2022-11-15T23:11:43.269Z,99.56
2022-11-15T23:14:12.671Z,99.27
2022-11-15T23:16:43.634Z,98.83
2022-11-15T23:19:15.935Z,98.58
2022-11-15T23:22:08.577Z,98.94
2022-11-15T23:24:36.559Z,97.98
2022-11-15T23:27:07.219Z,97.45
2022-11-15T23:29:58.374Z,96.59
2022-11-15T23:32:43.730Z,96.68
2022-11-15T23:35:11.918Z,96.82
2022-11-15T23:37:39.867Z,95.99
2022-11-15T23:40:09.467Z,96.78
2022-11-15T23:42:37.455Z,97.16
2022-11-15T23:45:08.285Z,96.87
2022-11-15T23:47:36.403Z,96.90
2022-11-15T23:50:05.543Z,96.27
2022-11-15T23:52:33.666Z,95.94
2022-11-15T23:55:01.659Z,94.66
2022-11-15T23:57:29.799Z,96.03
